Time;durP1;ratioP1;P1;durP2;ratioP2;P2;SDS_P1;SDS_P2;PMS_P1;PMS_P2;Temp;Humidity;BMP_temperature;BMP_pressure;BME280_temperature;BME280_humidity;BME280_pressure;Samples;Min_cycle;Max_cycle;Signal;HPM_P1;HPM_P2
2022/03/04 00:00:46;;;;;;;49.47;21.92;;;1.80;99.90;;;;;;5078903;28;20028;-70
2022/03/04 00:03:12;;;;;;;49.08;21.98;;;1.70;99.90;;;;;;5095597;28;20038;-70
2022/03/04 00:05:39;;;;;;;51.10;22.92;;;1.60;99.90;;;;;;5113846;28;20447;-70
2022/03/04 00:08:05;;;;;;;51.15;23.15;;;1.60;99.90;;;;;;5095854;28;20051;-70
2022/03/04 00:10:31;;;;;;;54.75;22.05;;;1.60;99.90;;;;;;5113759;28;20477;-70
2022/03/04 00:12:57;;;;;;;48.03;22.35;;;1.50;99.90;;;;;;5113747;28;20034;-70
2022/03/04 00:15:23;;;;;;;49.35;22.67;;;1.50;99.90;;;;;;5113677;28;20473;-70
2022/03/04 00:17:48;;;;;;;46.88;22.45;;;1.50;99.90;;;;;;5095609;28;20027;-70
2022/03/04 00:20:14;;;;;;;50.00;23.17;;;1.40;99.90;;;;;;5095515;28;20490;-70
2022/03/04 00:22:40;;;;;;;47.85;22.27;;;1.40;99.90;;;;;;5113437;28;20036;-70
2022/03/04 00:25:06;;;;;;;50.53;22.60;;;1.50;99.90;;;;;;5095488;28;20020;-70
2022/03/04 00:27:32;;;;;;;52.92;22.83;;;1.40;99.90;;;;;;5095368;28;20381;-70
2022/03/04 00:29:57;;;;;;;45.42;21.42;;;1.40;99.90;;;;;;5113574;28;20110;-70
2022/03/04 00:32:23;;;;;;;52.13;22.48;;;1.40;99.90;;;;;;5095481;28;20066;-70
2022/03/04 00:34:48;;;;;;;45.90;21.15;;;1.40;99.90;;;;;;5113632;28;20028;-70
2022/03/04 00:37:14;;;;;;;51.42;22.30;;;1.30;99.90;;;;;;5113593;28;20362;-70
2022/03/04 00:39:39;;;;;;;54.47;22.38;;;1.30;99.90;;;;;;5113454;28;20389;-70
2022/03/04 00:42:05;;;;;;;55.78;23.55;;;1.20;99.90;;;;;;5078288;28;20016;-70
2022/03/04 00:44:31;;;;;;;46.33;22.55;;;1.30;99.90;;;;;;5113572;28;20508;-70
2022/03/04 00:46:57;;;;;;;46.97;21.70;;;1.10;99.90;;;;;;5095226;28;20019;-70
2022/03/04 00:49:22;;;;;;;54.22;23.45;;;1.00;99.90;;;;;;5078309;28;20020;-70
2022/03/04 00:51:48;;;;;;;48.15;21.77;;;0.90;99.90;;;;;;5113455;28;20059;-70
2022/03/04 00:54:13;;;;;;;50.05;22.00;;;0.90;99.90;;;;;;5095264;28;20019;-70
2022/03/04 00:56:39;;;;;;;42.35;21.00;;;0.70;99.90;;;;;;5095431;28;20110;-71
2022/03/04 00:59:04;;;;;;;49.50;22.30;;;0.60;99.90;;;;;;5113302;28;20485;-70
2022/03/04 01:01:30;;;;;;;49.35;22.63;;;0.60;99.90;;;;;;5113331;28;20024;-71
2022/03/04 01:03:56;;;;;;;53.55;22.35;;;0.60;99.90;;;;;;5095196;28;20023;-71
2022/03/04 01:06:22;;;;;;;49.65;23.05;;;0.60;99.90;;;;;;5113321;28;20023;-71
2022/03/04 01:08:47;;;;;;;53.08;24.10;;;0.50;99.90;;;;;;5113235;28;20027;-71
2022/03/04 01:11:13;;;;;;;49.65;22.88;;;0.50;99.90;;;;;;5113158;28;20030;-71
2022/03/04 01:13:38;;;;;;;51.63;23.80;;;0.70;99.90;;;;;;5094916;28;20134;-71
2022/03/04 01:16:04;;;;;;;49.00;23.20;;;0.60;99.90;;;;;;5095059;28;20358;-71
2022/03/04 01:18:30;;;;;;;50.55;23.17;;;0.60;99.90;;;;;;5112006;28;20099;-71
2022/03/04 01:20:55;;;;;;;57.25;23.08;;;0.70;99.90;;;;;;5112919;28;20059;-71
2022/03/04 01:23:21;;;;;;;52.95;23.10;;;0.70;99.90;;;;;;5113106;28;20024;-71
2022/03/04 01:25:47;;;;;;;49.85;22.83;;;0.80;99.90;;;;;;5113188;28;20108;-71
2022/03/04 01:28:12;;;;;;;49.00;22.38;;;0.80;99.90;;;;;;5112979;28;20024;-70
2022/03/04 01:30:38;;;;;;;50.85;22.38;;;0.80;99.90;;;;;;5097936;28;20054;-70
2022/03/04 01:33:04;;;;;;;53.63;24.63;;;0.70;99.90;;;;;;5116658;28;20065;-71
2022/03/04 01:35:29;;;;;;;53.80;23.15;;;0.70;99.90;;;;;;5116676;28;20024;-71
2022/03/04 01:37:55;;;;;;;52.28;22.77;;;0.60;99.90;;;;;;5116580;28;20024;-70
2022/03/04 01:40:21;;;;;;;50.58;22.77;;;0.70;99.90;;;;;;5116644;28;20031;-71
2022/03/04 01:42:46;;;;;;;49.70;23.15;;;0.70;99.90;;;;;;5116574;28;20023;-71
2022/03/04 01:45:12;;;;;;;52.75;24.42;;;0.70;99.90;;;;;;5116451;28;20043;-71
2022/03/04 01:47:41;;;;;;;53.67;23.10;;;0.70;99.90;;;;;;5116394;28;20020;-71
2022/03/04 01:50:08;;;;;;;58.20;23.38;;;0.70;99.90;;;;;;5116333;28;20500;-71
2022/03/04 01:52:33;;;;;;;51.85;23.00;;;0.60;99.90;;;;;;5081325;28;20497;-71
2022/03/04 01:54:59;;;;;;;52.30;22.55;;;0.60;99.90;;;;;;5116289;28;20108;-71
2022/03/04 01:57:24;;;;;;;51.47;21.85;;;0.70;99.90;;;;;;5098133;28;20035;-71
2022/03/04 01:59:50;;;;;;;51.88;22.90;;;0.70;99.90;;;;;;5098106;28;20038;-71
2022/03/04 02:02:15;;;;;;;46.50;21.65;;;0.70;99.90;;;;;;5097903;28;20089;-71
2022/03/04 02:04:43;;;;;;;47.90;22.55;;;0.60;99.90;;;;;;5097853;28;20436;-71
2022/03/04 02:07:09;;;;;;;49.85;22.60;;;0.50;99.90;;;;;;5115958;28;20069;-71
2022/03/04 02:09:34;;;;;;;49.83;23.08;;;0.30;99.90;;;;;;5115901;28;20020;-71
2022/03/04 02:12:00;;;;;;;51.85;22.75;;;0.10;99.90;;;;;;5080879;28;20020;-71
2022/03/04 02:14:25;;;;;;;43.22;20.65;;;0.00;99.90;;;;;;5115952;28;20027;-71
2022/03/04 02:16:53;;;;;;;56.92;24.23;;;-0.10;99.90;;;;;;5097653;28;20465;-71
2022/03/04 02:19:20;;;;;;;56.40;24.85;;;-0.20;99.90;;;;;;5115800;28;20023;-71
2022/03/04 02:21:51;;;;;;;55.65;23.88;;;-0.20;99.90;;;;;;5097195;28;20139;-71
2022/03/04 02:24:17;;;;;;;51.55;22.80;;;-0.20;99.90;;;;;;5097984;28;20048;-71
2022/03/04 02:26:43;;;;;;;56.65;24.35;;;-0.20;99.90;;;;;;5115643;28;20035;-70
2022/03/04 02:29:09;;;;;;;59.95;25.05;;;-0.20;99.90;;;;;;5115631;28;20388;-71
2022/03/04 02:31:34;;;;;;;57.80;24.35;;;-0.10;99.90;;;;;;5115569;28;20027;-71
2022/03/04 02:34:00;;;;;;;55.78;24.45;;;-0.10;99.90;;;;;;5115518;28;20032;-71
2022/03/04 02:36:25;;;;;;;58.35;25.30;;;0.00;99.90;;;;;;5114338;28;20028;-71
2022/03/04 02:38:51;;;;;;;55.88;24.02;;;0.00;99.90;;;;;;5097298;28;20397;-71
2022/03/04 02:41:17;;;;;;;60.72;25.98;;;0.10;99.90;;;;;;5097181;28;20363;-71
2022/03/04 02:43:42;;;;;;;59.17;25.42;;;0.10;99.90;;;;;;5114182;28;20029;-71
2022/03/04 02:46:08;;;;;;;59.78;25.35;;;0.20;99.90;;;;;;5097440;28;20027;-70
2022/03/04 02:48:34;;;;;;;56.42;24.25;;;0.20;99.90;;;;;;5115230;28;20027;-71
2022/03/04 02:50:59;;;;;;;56.90;24.90;;;0.00;99.90;;;;;;5115196;28;20020;-70
2022/03/04 02:53:25;;;;;;;62.53;25.48;;;0.00;99.90;;;;;;5115245;28;20418;-71
2022/03/04 02:55:50;;;;;;;62.80;25.13;;;0.00;99.90;;;;;;5115196;28;20024;-71
2022/03/04 02:58:16;;;;;;;57.33;25.25;;;-0.10;99.90;;;;;;5115061;28;20068;-71
2022/03/04 03:00:42;;;;;;;56.13;24.50;;;-0.20;99.90;;;;;;5114986;28;20121;-71
2022/03/04 03:03:07;;;;;;;65.45;25.50;;;-0.30;99.90;;;;;;5096654;28;20134;-71
2022/03/04 03:05:33;;;;;;;60.33;25.77;;;-0.40;99.90;;;;;;5114921;28;20019;-71
2022/03/04 03:07:58;;;;;;;61.28;26.67;;;-0.40;99.90;;;;;;5114865;28;20039;-70
2022/03/04 03:10:24;;;;;;;63.40;25.63;;;-0.40;99.90;;;;;;5114801;28;20020;-71
2022/03/04 03:12:49;;;;;;;60.05;24.67;;;-0.40;99.90;;;;;;5096486;28;20020;-70
2022/03/04 03:15:15;;;;;;;57.00;25.92;;;-0.40;99.90;;;;;;5096518;28;20027;-70
2022/03/04 03:17:41;;;;;;;64.18;25.95;;;-0.30;99.90;;;;;;5096475;28;20047;-70
2022/03/04 03:20:07;;;;;;;60.65;26.13;;;-0.20;99.90;;;;;;5096369;28;20038;-71
2022/03/04 03:22:33;;;;;;;59.03;25.33;;;-0.20;99.90;;;;;;5075999;28;20093;-70
2022/03/04 03:24:58;;;;;;;63.05;26.42;;;-0.20;99.90;;;;;;5092876;28;20359;-71
2022/03/04 03:27:24;;;;;;;61.08;25.52;;;-0.20;99.90;;;;;;5093014;28;20034;-70
2022/03/04 03:29:50;;;;;;;59.40;26.08;;;-0.20;99.90;;;;;;5093140;28;20462;-70
2022/03/04 03:32:16;;;;;;;62.63;26.05;;;-0.30;99.90;;;;;;5094067;28;20081;-70
2022/03/04 03:34:42;;;;;;;66.03;26.52;;;-0.30;99.90;;;;;;5094005;28;20386;-70
2022/03/04 03:37:09;;;;;;;60.90;25.58;;;-0.30;99.90;;;;;;5094033;28;20035;-71
2022/03/04 03:39:35;;;;;;;66.90;27.05;;;-0.30;99.90;;;;;;5092782;28;20390;-71
2022/03/04 03:42:02;;;;;;;64.63;25.98;;;-0.40;99.90;;;;;;5093826;28;20060;-70
2022/03/04 03:44:27;;;;;;;57.47;24.85;;;-0.40;99.90;;;;;;5092554;28;20016;-71
2022/03/04 03:46:53;;;;;;;58.45;26.67;;;-0.50;99.90;;;;;;5092672;28;20390;-71
2022/03/04 03:49:18;;;;;;;60.22;26.73;;;-0.60;99.90;;;;;;5092543;28;20390;-70
2022/03/04 03:51:44;;;;;;;65.53;27.48;;;-0.70;99.90;;;;;;5093293;28;20031;-70
2022/03/04 03:54:10;;;;;;;65.18;26.65;;;-0.70;99.90;;;;;;5093667;28;20028;-71
2022/03/04 03:56:36;;;;;;;66.47;26.35;;;-0.70;99.90;;;;;;5093717;28;20125;-71
2022/03/04 03:59:01;;;;;;;67.30;26.38;;;-0.70;99.90;;;;;;5092365;28;20385;-70
2022/03/04 04:01:27;;;;;;;62.35;25.88;;;-0.80;99.90;;;;;;5075413;28;20020;-70
2022/03/04 04:03:52;;;;;;;68.78;25.70;;;-0.70;99.90;;;;;;5075512;28;20474;-70
2022/03/04 04:06:18;;;;;;;65.18;26.27;;;-0.60;99.90;;;;;;5092400;28;20024;-71
2022/03/04 04:08:44;;;;;;;66.55;27.13;;;-0.70;99.90;;;;;;5093447;28;20020;-71
2022/03/04 04:11:09;;;;;;;63.47;27.02;;;-0.70;99.90;;;;;;5092448;28;20078;-70
2022/03/04 04:13:35;;;;;;;65.85;29.08;;;-0.70;99.90;;;;;;5092137;28;20024;-70
2022/03/04 04:16:01;;;;;;;63.13;27.10;;;-0.70;99.90;;;;;;5109151;28;20035;-70
2022/03/04 04:18:26;;;;;;;69.00;27.80;;;-0.70;99.90;;;;;;5075216;28;20028;-71
2022/03/04 04:20:52;;;;;;;66.60;26.98;;;-0.70;99.90;;;;;;5093743;28;20028;-71
2022/03/04 04:23:18;;;;;;;67.80;27.77;;;-0.70;99.90;;;;;;5113525;28;20036;-70
2022/03/04 04:25:43;;;;;;;69.53;29.38;;;-0.70;99.90;;;;;;5095521;28;20132;-70
2022/03/04 04:28:09;;;;;;;68.28;28.88;;;-0.80;99.90;;;;;;5113583;28;20056;-71
2022/03/04 04:30:34;;;;;;;64.50;27.60;;;-0.80;99.90;;;;;;5113658;28;20028;-70
2022/03/04 04:33:00;;;;;;;65.60;27.27;;;-0.90;99.90;;;;;;5095290;28;20023;-70
2022/03/04 04:35:25;;;;;;;75.93;29.63;;;-0.90;99.90;;;;;;5078595;28;20028;-70
2022/03/04 04:37:51;;;;;;;69.43;29.13;;;-0.90;99.90;;;;;;5113729;28;20397;-70
2022/03/04 04:40:17;;;;;;;69.97;27.45;;;-0.90;99.90;;;;;;5095300;28;20024;-70
2022/03/04 04:42:42;;;;;;;66.05;27.13;;;-0.90;99.90;;;;;;5113470;28;20163;-71
2022/03/04 04:45:08;;;;;;;65.90;28.58;;;-0.90;99.90;;;;;;5113421;28;20032;-71
2022/03/04 04:47:34;;;;;;;65.57;28.25;;;-1.00;99.90;;;;;;5113386;28;20020;-71
2022/03/04 04:50:00;;;;;;;75.25;28.88;;;-0.90;99.90;;;;;;5078305;28;20089;-71
2022/03/04 04:52:25;;;;;;;70.13;30.02;;;-0.90;99.90;;;;;;5113370;28;20032;-71
2022/03/04 04:54:51;;;;;;;71.22;29.00;;;-0.90;99.90;;;;;;5113431;28;20030;-70
2022/03/04 04:57:16;;;;;;;70.43;28.42;;;-1.00;99.90;;;;;;5095193;28;20055;-71
2022/03/04 04:59:42;;;;;;;70.18;29.88;;;-1.00;99.90;;;;;;5078250;28;20026;-70
2022/03/04 05:02:08;;;;;;;76.32;29.77;;;-1.00;99.90;;;;;;5095250;28;20028;-71
2022/03/04 05:04:33;;;;;;;72.95;29.17;;;-1.00;99.90;;;;;;5114961;28;20031;-71
2022/03/04 05:06:58;;;;;;;69.75;29.52;;;-1.00;99.90;;;;;;5098978;28;20107;-71
2022/03/04 05:09:24;;;;;;;72.10;28.92;;;-0.90;99.90;;;;;;5117246;28;20026;-71
2022/03/04 05:11:49;;;;;;;68.05;28.52;;;-1.00;99.90;;;;;;5098924;28;20024;-70
2022/03/04 05:14:15;;;;;;;74.93;29.50;;;-0.90;99.90;;;;;;5098841;28;20027;-71
2022/03/04 05:16:41;;;;;;;73.88;29.40;;;-1.00;99.90;;;;;;5098758;28;20046;-70
2022/03/04 05:19:06;;;;;;;72.97;29.15;;;-1.10;99.90;;;;;;5098758;28;20568;-71
2022/03/04 05:21:32;;;;;;;75.57;30.30;;;-1.10;99.90;;;;;;5078130;28;20097;-70
2022/03/04 05:23:59;;;;;;;77.28;31.15;;;-1.10;99.90;;;;;;5096493;28;20036;-70
2022/03/04 05:26:26;;;;;;;73.00;29.15;;;-1.10;99.90;;;;;;5095434;28;20023;-71
2022/03/04 05:28:51;;;;;;;77.32;30.15;;;-1.00;99.90;;;;;;5112352;28;20106;-70
2022/03/04 05:31:17;;;;;;;80.85;30.27;;;-1.00;99.90;;;;;;5095191;28;20107;-71
2022/03/04 05:33:42;;;;;;;75.18;29.25;;;-1.10;99.90;;;;;;5078107;28;20073;-70
2022/03/04 05:36:08;;;;;;;79.88;30.42;;;-1.10;99.90;;;;;;5095044;28;20032;-70
2022/03/04 05:38:33;;;;;;;84.68;32.05;;;-1.00;99.90;;;;;;5096260;28;20099;-71
2022/03/04 05:40:59;;;;;;;81.20;30.50;;;-0.90;99.90;;;;;;5094904;28;20020;-71
2022/03/04 05:43:24;;;;;;;80.47;30.98;;;-1.00;99.90;;;;;;5096257;28;20033;-71
2022/03/04 05:45:51;;;;;;;75.75;29.85;;;-1.00;99.90;;;;;;5094832;28;20024;-70
2022/03/04 05:48:17;;;;;;;84.22;31.63;;;-1.00;99.90;;;;;;5096070;28;20044;-70
2022/03/04 05:50:42;;;;;;;83.25;33.67;;;-1.10;99.90;;;;;;5096013;28;20028;-70
2022/03/04 05:53:08;;;;;;;78.13;30.60;;;-1.10;99.90;;;;;;5094591;28;20032;-71
2022/03/04 05:55:34;;;;;;;81.43;30.95;;;-1.20;99.90;;;;;;5095976;28;20474;-71
2022/03/04 05:57:59;;;;;;;79.07;33.35;;;-1.10;99.90;;;;;;5095895;28;20023;-71
2022/03/04 06:00:26;;;;;;;85.18;33.45;;;-1.20;99.90;;;;;;5095868;28;20016;-70
2022/03/04 06:02:51;;;;;;;82.43;33.75;;;-1.30;99.90;;;;;;5094504;28;20028;-70
2022/03/04 06:05:17;;;;;;;83.85;32.97;;;-1.30;99.90;;;;;;5094500;28;20367;-70
2022/03/04 06:07:42;;;;;;;79.82;32.75;;;-1.30;99.90;;;;;;5095669;28;20035;-71
2022/03/04 06:10:08;;;;;;;84.50;32.58;;;-1.30;99.90;;;;;;5095663;28;20077;-71
2022/03/04 06:12:34;;;;;;;80.63;32.10;;;-1.30;99.90;;;;;;5095495;28;20039;-70
2022/03/04 06:14:59;;;;;;;80.10;33.35;;;-1.30;99.90;;;;;;5093910;28;20473;-70
2022/03/04 06:17:25;;;;;;;82.32;34.03;;;-1.40;99.90;;;;;;5095481;28;20028;-71
2022/03/04 06:19:50;;;;;;;83.35;34.00;;;-1.40;99.90;;;;;;5095507;28;20514;-70
2022/03/04 06:22:18;;;;;;;76.72;31.25;;;-1.40;99.90;;;;;;5095291;28;20044;-70
2022/03/04 06:24:44;;;;;;;80.25;33.28;;;-1.50;99.90;;;;;;5077646;28;20027;-71
2022/03/04 06:27:09;;;;;;;80.97;33.92;;;-1.30;99.90;;;;;;5060479;28;20028;-71
2022/03/04 06:29:35;;;;;;;95.20;35.80;;;-1.10;99.90;;;;;;5095303;28;20016;-71
2022/03/04 06:32:00;;;;;;;83.75;34.25;;;-0.90;99.90;;;;;;5095190;28;20099;-71
2022/03/04 06:34:26;;;;;;;88.07;34.83;;;-0.60;99.90;;;;;;5077188;28;20028;-71
2022/03/04 06:36:51;;;;;;;73.47;31.15;;;-0.20;99.90;;;;;;5076830;28;20027;-71
2022/03/04 06:39:17;;;;;;;75.07;31.50;;;0.00;99.90;;;;;;5076939;28;20024;-71
2022/03/04 06:41:42;;;;;;;74.00;30.85;;;0.40;99.90;;;;;;5076813;28;20048;-70
2022/03/04 06:44:09;;;;;;;76.25;31.65;;;0.80;99.90;;;;;;5076950;28;20028;-70
2022/03/04 06:46:34;;;;;;;67.85;29.60;;;1.30;99.90;;;;;;5094928;28;20039;-70
2022/03/04 06:49:00;;;;;;;60.65;27.88;;;2.00;99.90;;;;;;5076668;28;20478;-69
2022/03/04 06:51:26;;;;;;;64.95;27.77;;;2.40;99.90;;;;;;5076704;28;20066;-72
2022/03/04 06:53:52;;;;;;;58.67;27.65;;;2.70;99.90;;;;;;5094657;28;20016;-70
2022/03/04 06:56:18;;;;;;;63.55;28.30;;;3.00;99.90;;;;;;5094728;28;20111;-70
2022/03/04 06:58:44;;;;;;;60.13;28.10;;;3.20;99.90;;;;;;5059730;28;20390;-70
2022/03/04 07:01:10;;;;;;;59.50;27.45;;;3.30;99.90;;;;;;5076359;28;20073;-70
2022/03/04 07:03:35;;;;;;;56.20;25.30;;;3.10;99.90;;;;;;5076345;28;20123;-71
2022/03/04 07:06:01;;;;;;;58.15;27.13;;;3.60;99.90;;;;;;5076439;28;20028;-70
2022/03/04 07:08:27;;;;;;;53.88;26.05;;;4.10;99.90;;;;;;5094438;28;20419;-70
2022/03/04 07:10:52;;;;;;;54.50;25.77;;;4.50;99.90;;;;;;5075898;28;20029;-70
2022/03/04 07:13:19;;;;;;;52.00;25.67;;;5.00;99.90;;;;;;5094209;28;20064;-70
2022/03/04 07:15:45;;;;;;;55.38;25.88;;;4.90;99.90;;;;;;5094052;28;20095;-70
2022/03/04 07:18:11;;;;;;;52.83;26.55;;;5.70;99.90;;;;;;5094109;28;20434;-70
2022/03/04 07:20:37;;;;;;;52.65;26.38;;;5.80;99.90;;;;;;5076080;28;20024;-70
2022/03/04 07:23:05;;;;;;;50.22;25.65;;;6.30;99.90;;;;;;5094059;28;20044;-70
2022/03/04 07:25:31;;;;;;;52.78;27.20;;;6.40;99.90;;;;;;5094133;28;20028;-70
2022/03/04 07:27:56;;;;;;;49.58;25.42;;;5.90;99.90;;;;;;5075351;28;20022;-71
2022/03/04 07:30:22;;;;;;;47.17;26.50;;;6.60;99.90;;;;;;5092966;28;20360;-71
2022/03/04 07:32:49;;;;;;;51.35;26.05;;;7.40;99.90;;;;;;5093869;28;20408;-70
2022/03/04 07:35:15;;;;;;;50.10;25.83;;;6.60;99.90;;;;;;5093967;28;20072;-71
2022/03/04 07:37:42;;;;;;;47.53;26.02;;;7.50;99.90;;;;;;5093843;28;20493;-71
2022/03/04 07:40:10;;;;;;;51.30;26.48;;;7.80;99.90;;;;;;5059249;28;20198;-70
2022/03/04 07:42:36;;;;;;;51.08;26.15;;;7.40;99.90;;;;;;5075475;28;20028;-71
2022/03/04 07:45:03;;;;;;;51.33;25.50;;;7.50;99.90;;;;;;5075714;28;20428;-70
2022/03/04 07:47:29;;;;;;;45.13;24.75;;;8.10;99.90;;;;;;5061046;28;20038;-70
2022/03/04 07:49:54;;;;;;;48.08;25.27;;;8.10;99.90;;;;;;5101903;28;20497;-70
2022/03/04 07:52:20;;;;;;;51.85;26.88;;;8.40;99.90;;;;;;5105844;28;20062;-70
2022/03/04 07:54:45;;;;;;;49.53;26.15;;;7.20;99.90;;;;;;5110332;28;20317;-70
2022/03/04 07:57:11;;;;;;;46.63;24.95;;;8.30;99.90;;;;;;5093279;28;20028;-70
2022/03/04 07:59:36;;;;;;;46.00;25.83;;;8.30;99.90;;;;;;5105755;28;20020;-70
2022/03/04 08:02:02;;;;;;;47.33;26.85;;;8.40;99.90;;;;;;5085091;28;20028;-69
2022/03/04 08:04:28;;;;;;;48.92;26.67;;;6.10;99.90;;;;;;5104201;28;20035;-70
2022/03/04 08:06:53;;;;;;;46.47;25.33;;;6.80;99.90;;;;;;5112113;28;20038;-69
2022/03/04 08:09:19;;;;;;;47.78;25.75;;;6.40;99.90;;;;;;5079488;28;20111;-69
2022/03/04 08:11:46;;;;;;;46.55;24.85;;;7.50;99.90;;;;;;5075258;28;20077;-69
2022/03/04 08:14:12;;;;;;;49.58;26.70;;;7.90;99.90;;;;;;5104620;28;20020;-70
2022/03/04 08:16:37;;;;;;;48.92;26.65;;;8.20;99.90;;;;;;5101596;28;20023;-70
2022/03/04 08:19:05;;;;;;;45.30;25.73;;;9.30;99.90;;;;;;5113740;28;20064;-70
2022/03/04 08:21:31;;;;;;;46.53;25.15;;;9.70;99.90;;;;;;5112841;28;20038;-69
2022/03/04 08:23:56;;;;;;;44.15;25.33;;;8.40;99.90;;;;;;5095455;28;20020;-69
2022/03/04 08:26:22;;;;;;;46.53;26.55;;;7.10;99.90;;;;;;5086934;28;20390;-69
2022/03/04 08:28:47;;;;;;;47.17;26.60;;;8.00;99.90;;;;;;5096338;28;20473;-69
2022/03/04 08:31:13;;;;;;;47.03;26.95;;;8.50;99.90;;;;;;5086938;28;20027;-70
2022/03/04 08:33:41;;;;;;;46.78;26.38;;;9.00;99.90;;;;;;5103855;28;20024;-69
2022/03/04 08:36:06;;;;;;;48.40;25.92;;;9.40;99.90;;;;;;5099759;28;20485;-69
2022/03/04 08:38:32;;;;;;;48.95;25.23;;;9.20;99.90;;;;;;5109627;28;20019;-69
2022/03/04 08:40:58;;;;;;;46.20;26.27;;;8.10;99.90;;;;;;5113352;28;20118;-69
2022/03/04 08:43:23;;;;;;;46.47;26.45;;;8.70;99.90;;;;;;5068741;28;20432;-69
2022/03/04 08:45:49;;;;;;;43.55;25.23;;;9.30;99.90;;;;;;5079957;28;20071;-72
2022/03/04 08:48:15;;;;;;;41.70;24.02;;;9.90;99.90;;;;;;5101069;28;20434;-70
2022/03/04 08:50:40;;;;;;;45.95;24.88;;;10.40;99.60;;;;;;5108033;28;20031;-70
2022/03/04 08:53:06;;;;;;;42.22;23.63;;;10.60;99.80;;;;;;5116225;28;20123;-70
2022/03/04 08:55:32;;;;;;;42.38;25.35;;;11.00;97.50;;;;;;5086936;28;20028;-70
2022/03/04 08:57:58;;;;;;;44.60;25.63;;;10.20;98.10;;;;;;5097955;28;20032;-71
2022/03/04 09:00:24;;;;;;;42.88;25.33;;;10.30;99.90;;;;;;5081887;28;20504;-71
2022/03/04 09:02:50;;;;;;;43.22;25.55;;;10.70;98.50;;;;;;5092067;28;20024;-70
2022/03/04 09:05:16;;;;;;;43.83;25.02;;;9.20;99.90;;;;;;5072729;28;20032;-70
2022/03/04 09:07:42;;;;;;;45.75;24.92;;;10.00;99.90;;;;;;5072466;28;20028;-69
2022/03/04 09:10:08;;;;;;;45.72;25.52;;;10.20;99.50;;;;;;5085782;28;20504;-70
2022/03/04 09:12:34;;;;;;;42.67;24.17;;;10.30;99.60;;;;;;5069108;28;20552;-70
2022/03/04 09:15:00;;;;;;;42.13;25.08;;;10.40;99.90;;;;;;5078347;28;20027;-70
2022/03/04 09:17:25;;;;;;;38.00;23.55;;;10.70;99.50;;;;;;5096688;28;20032;-70
2022/03/04 09:19:51;;;;;;;40.28;24.50;;;10.80;99.00;;;;;;5078373;28;20028;-70
2022/03/04 09:22:16;;;;;;;43.42;25.15;;;10.30;98.50;;;;;;5104230;28;20047;-70
2022/03/04 09:24:42;;;;;;;40.17;24.83;;;9.60;99.90;;;;;;5098406;28;20440;-71
2022/03/04 09:27:07;;;;;;;44.83;25.02;;;10.00;99.90;;;;;;5096865;28;20028;-70
2022/03/04 09:29:34;;;;;;;44.20;24.83;;;10.50;99.90;;;;;;5093898;28;20072;-69
2022/03/04 09:31:59;;;;;;;42.63;24.80;;;9.90;99.20;;;;;;5105027;28;20030;-69
2022/03/04 09:34:25;;;;;;;43.70;24.65;;;10.50;99.80;;;;;;5116568;28;20019;-70
2022/03/04 09:36:50;;;;;;;37.17;23.50;;;11.40;98.60;;;;;;5103473;28;20031;-70
2022/03/04 09:39:16;;;;;;;39.95;24.15;;;11.20;97.90;;;;;;5094827;28;20072;-69
2022/03/04 09:41:45;;;;;;;41.55;24.58;;;10.70;98.10;;;;;;5104347;28;20149;-69
2022/03/04 09:44:12;;;;;;;41.65;24.48;;;10.20;98.40;;;;;;5116450;28;20016;-69
2022/03/04 09:46:41;;;;;;;39.35;23.45;;;9.10;99.90;;;;;;5094820;28;20378;-70
2022/03/04 09:49:08;;;;;;;47.03;25.70;;;9.70;99.90;;;;;;5094709;28;20073;-69
2022/03/04 09:51:35;;;;;;;41.17;24.23;;;9.50;99.90;;;;;;5066407;28;20028;-70
2022/03/04 09:54:01;;;;;;;41.30;24.02;;;9.10;99.90;;;;;;5091089;28;20565;-69
2022/03/04 09:56:27;;;;;;;41.47;23.85;;;8.90;99.90;;;;;;5116318;28;20016;-70
2022/03/04 09:58:52;;;;;;;38.28;23.77;;;9.20;99.90;;;;;;5103913;28;20111;-70
2022/03/04 10:01:18;;;;;;;38.00;22.10;;;9.40;99.90;;;;;;5079391;28;20047;-70
2022/03/04 10:03:46;;;;;;;41.75;23.73;;;9.10;99.90;;;;;;5094406;28;20032;-70
2022/03/04 10:06:13;;;;;;;41.60;22.83;;;9.80;99.90;;;;;;5098213;28;20024;-70
2022/03/04 10:08:42;;;;;;;43.10;24.52;;;10.50;99.90;;;;;;5099997;28;20036;-70
2022/03/04 10:11:09;;;;;;;40.30;23.08;;;10.10;99.90;;;;;;5112084;28;20106;-70
2022/03/04 10:16:26;;;;;;;51.08;26.10;;;11.00;99.90;;;;;;5069915;28;20434;-70
2022/03/04 10:19:14;;;;;;;41.38;24.05;;;11.70;94.60;;;;;;5052450;28;20483;-71
2022/03/04 10:21:57;;;;;;;39.80;23.15;;;11.40;96.70;;;;;;5069792;28;20074;-70
2022/03/04 10:24:31;;;;;;;46.20;25.38;;;11.40;94.60;;;;;;5070078;28;20040;-71
2022/03/04 10:27:03;;;;;;;41.47;24.20;;;11.00;96.40;;;;;;5069189;28;20033;-70
2022/03/04 10:29:31;;;;;;;42.08;23.38;;;10.70;96.90;;;;;;5051863;28;20028;-71
2022/03/04 10:32:19;;;;;;;40.20;23.08;;;11.10;96.80;;;;;;5051346;28;20025;-70
2022/03/04 10:35:06;;;;;;;36.60;22.70;;;10.90;95.90;;;;;;5065565;28;20498;-70
2022/03/04 10:37:43;;;;;;;40.05;23.50;;;10.90;94.90;;;;;;5054739;28;20107;-70
2022/03/04 10:40:13;;;;;;;39.58;22.10;;;11.20;94.70;;;;;;5068764;28;20021;-70
2022/03/04 10:42:43;;;;;;;39.35;22.48;;;11.40;93.70;;;;;;5069837;28;20393;-71
2022/03/04 10:45:14;;;;;;;35.70;22.02;;;10.60;94.00;;;;;;5068187;28;20032;-70
2022/03/04 10:47:45;;;;;;;38.35;22.02;;;10.30;97.40;;;;;;5064703;28;20032;-70
2022/03/04 10:50:13;;;;;;;38.55;21.00;;;9.90;97.60;;;;;;5069827;28;20390;-70
2022/03/04 10:52:58;;;;;;;37.22;20.55;;;10.80;96.60;;;;;;5051899;28;20021;-70
2022/03/04 10:55:27;;;;;;;36.65;21.05;;;11.20;93.10;;;;;;5065549;28;20552;-70
2022/03/04 10:57:53;;;;;;;35.90;20.90;;;10.30;92.40;;;;;;5069290;28;20016;-71
2022/03/04 11:00:28;;;;;;;35.28;20.48;;;9.60;95.00;;;;;;5067407;28;20028;-70
2022/03/04 11:02:54;;;;;;;36.63;21.40;;;10.00;94.60;;;;;;5057115;28;20501;-71
2022/03/04 11:05:22;;;;;;;35.00;19.50;;;10.50;95.00;;;;;;5068252;28;20025;-70
2022/03/04 11:07:48;;;;;;;32.72;19.17;;;10.30;93.80;;;;;;5068152;28;20024;-70
2022/03/04 11:10:13;;;;;;;34.63;20.10;;;11.00;94.00;;;;;;5067948;28;20039;-70
2022/03/04 11:12:42;;;;;;;34.65;19.83;;;11.20;92.50;;;;;;5050687;28;20033;-70
2022/03/04 11:15:11;;;;;;;35.25;19.77;;;10.50;90.90;;;;;;5068846;28;20068;-70
2022/03/04 11:17:38;;;;;;;30.58;18.20;;;10.90;92.60;;;;;;5067528;28;20063;-70
2022/03/04 11:20:05;;;;;;;36.05;20.20;;;10.00;92.20;;;;;;5066200;28;20017;-71
2022/03/04 11:22:32;;;;;;;37.00;21.63;;;10.30;93.90;;;;;;5067746;28;20459;-71
2022/03/04 11:25:04;;;;;;;35.72;19.35;;;10.90;93.90;;;;;;5068968;28;20053;-70
2022/03/04 11:27:37;;;;;;;34.65;19.70;;;11.20;91.40;;;;;;5041366;28;20028;-70
2022/03/04 11:30:04;;;;;;;37.22;20.20;;;11.40;90.80;;;;;;5055510;28;20037;-70
2022/03/04 11:32:30;;;;;;;34.08;19.50;;;11.10;90.80;;;;;;5042453;28;20124;-70
2022/03/04 11:34:56;;;;;;;33.60;19.65;;;10.70;93.50;;;;;;5055649;28;20021;-70
2022/03/04 11:37:23;;;;;;;37.78;19.27;;;10.10;95.50;;;;;;5054461;28;20047;-70
2022/03/04 11:40:43;;;;;;;37.60;20.08;;;9.80;95.00;;;;;;5055460;28;20013;-71
2022/03/04 11:42:58;;;;;;;33.03;19.08;;;9.60;97.10;;;;;;5035396;28;20503;-69
2022/03/04 11:45:38;;;;;;;36.95;18.70;;;9.30;96.20;;;;;;5042932;28;20044;-70
2022/03/04 11:48:08;;;;;;;33.83;18.02;;;8.30;99.10;;;;;;5051878;28;20478;-69
2022/03/04 11:50:36;;;;;;;36.08;18.38;;;8.30;99.90;;;;;;5055134;28;20490;-69
2022/03/04 11:53:23;;;;;;;32.25;17.98;;;8.00;99.90;;;;;;5042676;28;20485;-69
2022/03/04 11:56:11;;;;;;;36.10;18.10;;;8.10;99.90;;;;;;5044293;28;20025;-69
2022/03/04 12:01:36;;;;;;;35.10;20.70;;;7.90;99.90;;;;;;5068662;28;20409;-71
2022/03/04 12:04:07;;;;;;;30.42;17.10;;;8.00;99.90;;;;;;5070297;28;20024;-71
2022/03/04 12:06:33;;;;;;;32.35;17.20;;;7.90;99.90;;;;;;5069630;28;20032;-70
2022/03/04 12:09:33;;;;;;;34.95;17.73;;;7.90;99.90;;;;;;5069284;28;20386;-70
2022/03/04 12:12:24;;;;;;;33.50;17.33;;;7.90;99.90;;;;;;5067608;28;20036;-71
2022/03/04 12:18:02;;;;;;;31.80;15.77;;;8.40;99.90;;;;;;5107946;27;20872;-69
2022/03/04 12:20:30;;;;;;;;;;;7.90;99.90;;;;;;5098516;28;20097;-70
2022/03/04 12:23:06;;;;;;;34.33;16.55;;;8.30;99.90;;;;;;5089645;28;19916;-70
2022/03/04 12:28:40;;;;;;;29.20;16.20;;;8.20;99.90;;;;;;5110741;27;20300;-71
2022/03/04 12:33:50;;;;;;;31.40;15.10;;;8.20;99.90;;;;;;5110913;27;20109;-70
2022/03/04 12:36:17;;;;;;;26.55;14.02;;;8.20;99.90;;;;;;5110884;28;20034;-70
2022/03/04 12:38:45;;;;;;;27.20;14.43;;;8.20;99.90;;;;;;5093686;28;20478;-71
2022/03/04 12:41:19;;;;;;;29.73;14.00;;;8.10;99.90;;;;;;5126744;28;20019;-70
2022/03/04 12:43:48;;;;;;;25.88;13.90;;;8.30;99.50;;;;;;5130117;28;20024;-70
2022/03/04 12:46:15;;;;;;;29.27;14.48;;;8.20;99.40;;;;;;5117094;28;20378;-69